createdAt,value
2023-01-12T00:01:39.401Z,6.52
2023-01-12T00:04:08.125Z,6.51
2023-01-12T00:06:36.526Z,6.50
2023-01-12T00:09:07.410Z,6.50
2023-01-12T00:11:37.494Z,6.50
2023-01-12T00:14:08.991Z,6.52
2023-01-12T00:16:48.438Z,6.53
2023-01-12T00:19:18.383Z,6.50
2023-01-12T00:21:56.383Z,6.63
2023-01-12T00:24:27.042Z,6.65
2023-01-12T00:26:56.594Z,6.63
2023-01-12T00:29:27.772Z,6.67
2023-01-12T00:31:57.923Z,6.68
2023-01-12T00:34:29.329Z,6.70
2023-01-12T00:37:00.978Z,6.72
2023-01-12T00:39:29.535Z,6.71
2023-01-12T00:42:15.580Z,6.77
2023-01-12T00:45:02.872Z,6.66
2023-01-12T00:47:31.001Z,6.65
2023-01-12T00:49:59.664Z,6.64
2023-01-12T00:52:31.402Z,6.67
2023-01-12T00:55:01.519Z,6.65
2023-01-12T00:57:29.758Z,6.66
2023-01-12T01:00:00.626Z,6.59
2023-01-12T01:02:30.073Z,6.69
2023-01-12T01:04:59.478Z,6.62
2023-01-12T01:07:28.977Z,6.67
2023-01-12T01:09:57.230Z,6.69
2023-01-12T01:12:25.307Z,6.72
2023-01-12T01:14:54.480Z,6.74
2023-01-12T01:17:23.956Z,6.76
2023-01-12T01:19:52.478Z,6.79
2023-01-12T01:22:20.968Z,6.81
2023-01-12T01:24:49.336Z,6.84
2023-01-12T01:27:18.817Z,6.93
2023-01-12T01:29:47.170Z,6.92
2023-01-12T01:32:15.560Z,6.95
2023-01-12T01:34:46.500Z,6.88
2023-01-12T01:37:14.741Z,6.90
2023-01-12T01:39:42.811Z,6.87
2023-01-12T01:42:28.059Z,6.89
2023-01-12T01:45:03.046Z,6.87
2023-01-12T01:47:40.422Z,6.88
2023-01-12T01:50:17.947Z,7.01
2023-01-12T01:52:53.286Z,6.97
2023-01-12T01:55:24.430Z,7.07
2023-01-12T01:57:57.373Z,7.03
2023-01-12T02:00:26.520Z,7.05
2023-01-12T02:02:58.295Z,7.02
2023-01-12T02:05:30.069Z,7.09
2023-01-12T02:08:07.050Z,7.05
2023-01-12T02:10:35.587Z,7.06
2023-01-12T02:13:35.329Z,7.14
2023-01-12T02:16:21.677Z,7.15
2023-01-12T02:18:57.836Z,7.19
2023-01-12T02:21:54.133Z,7.23
2023-01-12T02:24:54.068Z,7.21
2023-01-12T02:27:36.174Z,7.21
2023-01-12T02:30:47.456Z,7.24
2023-01-12T02:33:31.785Z,7.25
2023-01-12T02:36:07.078Z,7.22
2023-01-12T02:38:43.002Z,7.18
2023-01-12T02:41:43.981Z,7.23
2023-01-12T02:44:20.737Z,7.32
2023-01-12T02:46:52.320Z,7.31
2023-01-12T02:49:30.477Z,7.30
2023-01-12T02:52:02.852Z,7.39
2023-01-12T02:54:34.820Z,7.37
2023-01-12T02:57:06.751Z,7.37
2023-01-12T02:59:38.759Z,7.33
2023-01-12T03:02:11.173Z,7.36
2023-01-12T03:04:41.338Z,7.36
2023-01-12T03:07:24.429Z,7.39
2023-01-12T03:09:57.926Z,7.42
2023-01-12T03:12:30.772Z,7.43
2023-01-12T03:15:05.573Z,7.44
2023-01-12T03:17:37.829Z,7.49
2023-01-12T03:20:16.759Z,7.39
2023-01-12T03:22:48.333Z,7.34
2023-01-12T03:25:18.999Z,7.38
2023-01-12T03:27:52.101Z,7.47
2023-01-12T03:30:23.896Z,7.46
2023-01-12T03:32:52.985Z,7.37
2023-01-12T03:35:29.221Z,7.45
2023-01-12T03:38:04.149Z,7.43
2023-01-12T03:40:39.770Z,7.39
2023-01-12T03:43:15.200Z,7.47
2023-01-12T03:45:49.548Z,7.46
2023-01-12T03:48:22.437Z,7.39
2023-01-12T03:50:55.376Z,7.41
2023-01-12T03:53:25.487Z,7.38
2023-01-12T03:55:58.195Z,7.39
2023-01-12T03:58:31.263Z,7.39
2023-01-12T04:00:59.535Z,7.37
2023-01-12T04:03:27.847Z,7.41
2023-01-12T04:05:57.337Z,7.43
2023-01-12T04:08:25.698Z,7.41
2023-01-12T04:10:56.132Z,7.36
2023-01-12T04:13:23.367Z,7.44
2023-01-12T04:15:53.698Z,7.39
2023-01-12T04:18:22.300Z,7.38
2023-01-12T04:20:50.664Z,7.41
2023-01-12T04:23:19.339Z,7.43
2023-01-12T04:25:47.606Z,7.37
2023-01-12T04:28:17.379Z,7.41
2023-01-12T04:30:45.915Z,7.34
2023-01-12T04:33:14.677Z,7.32
2023-01-12T04:35:43.478Z,7.33
2023-01-12T04:38:11.607Z,7.31
2023-01-12T04:40:42.216Z,7.32
2023-01-12T04:43:12.046Z,7.33
2023-01-12T04:45:43.636Z,7.30
2023-01-12T04:48:13.690Z,7.33
2023-01-12T04:50:42.774Z,7.32
2023-01-12T04:53:12.849Z,7.33
2023-01-12T04:55:43.917Z,7.38
2023-01-12T04:58:12.123Z,7.33
2023-01-12T05:00:42.267Z,7.39
2023-01-12T05:03:12.600Z,7.40
2023-01-12T05:05:45.889Z,7.38
2023-01-12T05:08:32.353Z,7.47
2023-01-12T05:11:02.916Z,7.54
2023-01-12T05:13:32.555Z,7.53
2023-01-12T05:16:14.055Z,7.66
2023-01-12T05:18:42.591Z,7.60
2023-01-12T05:21:10.783Z,7.78
2023-01-12T05:23:39.487Z,7.67
2023-01-12T05:26:09.547Z,7.65
2023-01-12T05:28:38.499Z,7.57
2023-01-12T05:31:09.449Z,7.58
2023-01-12T05:33:38.884Z,7.50
2023-01-12T05:36:09.583Z,7.50
2023-01-12T05:38:37.918Z,7.49
2023-01-12T05:41:07.851Z,7.43
2023-01-12T05:43:54.023Z,7.46
2023-01-12T05:46:24.948Z,7.48
2023-01-12T05:48:54.798Z,7.53
2023-01-12T05:51:23.330Z,7.46
2023-01-12T05:53:52.888Z,7.46
2023-01-12T05:56:25.857Z,7.42
2023-01-12T05:58:57.251Z,7.38
2023-01-12T06:01:27.182Z,7.38
2023-01-12T06:03:59.440Z,7.37
2023-01-12T06:06:31.154Z,7.40
2023-01-12T06:09:00.459Z,7.41
2023-01-12T06:11:46.935Z,7.42
2023-01-12T06:14:18.688Z,7.48
2023-01-12T06:16:50.141Z,7.41
2023-01-12T06:19:20.448Z,7.44
2023-01-12T06:21:52.454Z,7.41
2023-01-12T06:24:22.459Z,7.46
2023-01-12T06:26:52.231Z,7.42
2023-01-12T06:29:22.733Z,7.54
2023-01-12T06:31:52.052Z,7.57
2023-01-12T06:34:20.318Z,7.63
2023-01-12T06:36:49.323Z,7.62
2023-01-12T06:39:17.814Z,7.71
2023-01-12T06:42:04.466Z,7.72
2023-01-12T06:44:34.083Z,7.73
2023-01-12T06:47:06.112Z,7.78
2023-01-12T06:49:35.658Z,7.79
2023-01-12T06:52:04.134Z,7.79
2023-01-12T06:54:32.460Z,7.84
2023-01-12T06:57:00.594Z,7.84
2023-01-12T06:59:30.081Z,7.84
2023-01-12T07:02:00.680Z,7.83
2023-01-12T07:04:30.064Z,7.84
2023-01-12T07:06:58.710Z,7.86
2023-01-12T07:09:26.920Z,7.88
2023-01-12T07:11:54.987Z,7.91
2023-01-12T07:14:25.697Z,7.88
2023-01-12T07:16:54.579Z,7.99
2023-01-12T07:19:24.101Z,7.96
2023-01-12T07:21:53.650Z,7.91
2023-01-12T07:24:21.782Z,7.94
2023-01-12T07:26:51.202Z,7.94
2023-01-12T07:29:20.013Z,7.88
2023-01-12T07:31:49.796Z,7.86
2023-01-12T07:34:18.322Z,7.87
2023-01-12T07:36:49.389Z,7.89
2023-01-12T07:39:18.026Z,7.90
2023-01-12T07:42:04.471Z,7.93
2023-01-12T07:44:34.154Z,7.87
2023-01-12T07:47:03.136Z,7.89
2023-01-12T07:49:31.373Z,7.86
2023-01-12T07:52:01.109Z,7.85
2023-01-12T07:54:31.409Z,7.89
2023-01-12T07:57:01.697Z,7.93
2023-01-12T07:59:29.846Z,8.04
2023-01-12T08:01:58.249Z,7.97
2023-01-12T08:04:26.498Z,7.97
2023-01-12T08:06:56.072Z,8.02
2023-01-12T08:09:26.003Z,8.03
2023-01-12T08:11:54.943Z,8.07
2023-01-12T08:14:28.843Z,8.06
2023-01-12T08:17:01.662Z,7.99
2023-01-12T08:19:37.147Z,8.00
2023-01-12T08:22:11.559Z,8.06
2023-01-12T08:24:48.874Z,8.05
2023-01-12T08:27:22.369Z,8.03
2023-01-12T08:29:55.847Z,8.00
2023-01-12T08:32:26.396Z,8.07
2023-01-12T08:34:59.374Z,8.16
2023-01-12T08:37:35.104Z,8.11
2023-01-12T08:40:08.861Z,8.08
2023-01-12T08:42:40.392Z,8.12
2023-01-12T08:45:10.203Z,8.06
2023-01-12T08:47:40.749Z,8.06
2023-01-12T08:50:11.358Z,8.01
2023-01-12T08:52:39.472Z,8.03
2023-01-12T08:55:15.169Z,8.09
2023-01-12T08:57:44.615Z,8.12
2023-01-12T09:00:17.042Z,8.07
2023-01-12T09:02:46.918Z,8.16
2023-01-12T09:05:16.464Z,8.07
2023-01-12T09:07:44.647Z,8.13
2023-01-12T09:10:16.327Z,8.19
2023-01-12T09:12:44.734Z,8.14
2023-01-12T09:15:13.558Z,8.33
2023-01-12T09:17:41.892Z,8.22
2023-01-12T09:20:11.557Z,8.13
2023-01-12T09:22:40.949Z,8.17
2023-01-12T09:25:10.608Z,8.24
2023-01-12T09:27:40.717Z,8.25
2023-01-12T09:30:10.857Z,8.16
2023-01-12T09:32:39.444Z,8.19
2023-01-12T09:35:09.245Z,8.14
2023-01-12T09:37:38.065Z,8.14
2023-01-12T09:40:08.124Z,8.16
2023-01-12T09:42:55.102Z,8.23
2023-01-12T09:45:43.825Z,8.31
2023-01-12T09:48:18.554Z,8.24
2023-01-12T09:50:57.279Z,8.26
2023-01-12T09:53:32.266Z,8.30
2023-01-12T09:56:06.327Z,8.33
2023-01-12T09:59:13.485Z,8.42
2023-01-12T10:01:43.466Z,8.59
2023-01-12T10:04:14.442Z,8.61
2023-01-12T10:06:44.052Z,8.67
2023-01-12T10:09:18.129Z,8.75
2023-01-12T10:11:53.431Z,8.87
2023-01-12T10:15:06.382Z,8.83
2023-01-12T10:17:51.425Z,8.86
2023-01-12T10:20:28.124Z,8.91
2023-01-12T10:23:00.373Z,8.88
2023-01-12T10:25:38.699Z,9.01
2023-01-12T10:28:11.235Z,8.93
2023-01-12T10:30:40.854Z,9.06
2023-01-12T10:33:17.690Z,9.05
2023-01-12T10:35:55.506Z,9.16
2023-01-12T10:38:34.709Z,9.09
2023-01-12T10:41:18.139Z,9.17
2023-01-12T10:43:48.819Z,9.16
2023-01-12T10:46:19.892Z,9.15
2023-01-12T10:48:51.252Z,9.19
2023-01-12T10:51:27.875Z,9.26
2023-01-12T10:53:59.938Z,9.28
2023-01-12T10:56:32.625Z,9.29
2023-01-12T10:59:06.105Z,9.18
2023-01-12T11:01:47.839Z,9.28
2023-01-12T11:04:21.895Z,9.25
2023-01-12T11:07:05.058Z,9.36
2023-01-12T11:09:33.795Z,9.45
2023-01-12T11:12:07.524Z,9.47
2023-01-12T11:14:49.094Z,9.48
2023-01-12T11:17:38.724Z,9.47
2023-01-12T11:20:20.086Z,9.52
2023-01-12T11:22:51.915Z,9.54
2023-01-12T11:25:27.497Z,9.59
2023-01-12T11:28:01.657Z,9.63
2023-01-12T11:30:40.793Z,9.73
2023-01-12T11:33:14.301Z,9.69
2023-01-12T11:35:52.745Z,9.79
2023-01-12T11:38:30.082Z,9.89
2023-01-12T11:40:59.778Z,9.90
2023-01-12T11:43:49.865Z,9.83
2023-01-12T11:46:29.032Z,10.10
2023-01-12T11:49:05.799Z,10.08
2023-01-12T11:51:36.499Z,9.96
2023-01-12T11:54:06.980Z,10.03
2023-01-12T11:57:08.917Z,10.06
2023-01-12T11:59:50.423Z,10.08
2023-01-12T12:02:33.444Z,10.16
2023-01-12T12:05:14.580Z,10.09
2023-01-12T12:08:02.442Z,10.13
2023-01-12T12:10:38.255Z,10.11
2023-01-12T12:13:21.342Z,9.93
2023-01-12T12:16:04.386Z,10.07
2023-01-12T12:18:50.017Z,10.17
2023-01-12T12:21:36.656Z,10.02
2023-01-12T12:24:19.820Z,9.98
2023-01-12T12:26:56.596Z,9.87
2023-01-12T12:29:41.083Z,9.81
2023-01-12T12:32:23.949Z,9.79
2023-01-12T12:35:26.485Z,9.84
2023-01-12T12:38:07.787Z,9.71
2023-01-12T12:41:13.688Z,9.73
2023-01-12T12:43:59.503Z,9.74
2023-01-12T12:46:34.345Z,9.74
2023-01-12T12:49:06.583Z,9.91
2023-01-12T12:51:37.466Z,9.89
2023-01-12T12:54:09.159Z,9.92
2023-01-12T12:56:39.344Z,9.90
2023-01-12T12:59:07.596Z,9.86
2023-01-12T13:01:42.600Z,9.79
2023-01-12T13:04:14.991Z,9.97
2023-01-12T13:06:50.403Z,9.94
2023-01-12T13:09:39.926Z,9.97
2023-01-12T13:12:37.490Z,9.95
2023-01-12T13:15:29.641Z,9.99
2023-01-12T13:17:59.334Z,9.97
2023-01-12T13:20:53.387Z,9.83
2023-01-12T13:23:45.166Z,9.76
2023-01-12T13:26:45.233Z,9.68
2023-01-12T13:29:49.935Z,9.69
2023-01-12T13:32:50.844Z,9.61
2023-01-12T13:35:55.266Z,9.64
2023-01-12T13:38:45.310Z,9.61
2023-01-12T13:41:41.146Z,9.75
2023-01-12T13:44:20.808Z,9.73
2023-01-12T13:46:53.662Z,9.71
2023-01-12T13:49:29.512Z,9.68
2023-01-12T13:52:03.799Z,9.67
2023-01-12T13:54:35.509Z,9.76
2023-01-12T13:57:10.890Z,9.64
2023-01-12T13:59:39.521Z,9.65
2023-01-12T14:02:18.848Z,9.63
2023-01-12T14:05:06.429Z,9.60
2023-01-12T14:07:49.707Z,9.59
2023-01-12T14:10:28.744Z,9.58
2023-01-12T14:13:32.491Z,9.58
2023-01-12T14:16:21.000Z,9.51
2023-01-12T14:18:53.263Z,9.56
2023-01-12T14:21:28.945Z,9.49
2023-01-12T14:24:15.621Z,9.63
2023-01-12T14:26:44.508Z,9.53
2023-01-12T14:29:26.025Z,9.56
2023-01-12T14:31:56.349Z,9.65
2023-01-12T14:34:31.906Z,9.62
2023-01-12T14:37:04.726Z,9.62
2023-01-12T14:39:41.489Z,9.60
2023-01-12T14:42:35.208Z,9.53
2023-01-12T14:45:37.476Z,9.52
2023-01-12T14:48:25.360Z,9.55
2023-01-12T14:51:17.563Z,9.54
2023-01-12T14:53:49.517Z,9.53
2023-01-12T14:56:23.307Z,9.51
2023-01-12T14:58:51.816Z,9.46
2023-01-12T15:01:34.099Z,9.55
2023-01-12T15:04:06.634Z,9.48
2023-01-12T15:06:41.988Z,9.53
2023-01-12T15:09:28.502Z,9.54
2023-01-12T15:11:56.969Z,9.62
2023-01-12T15:14:29.484Z,9.47
2023-01-12T15:17:15.383Z,9.41
2023-01-12T15:20:04.484Z,9.45
2023-01-12T15:22:52.778Z,9.43
2023-01-12T15:25:38.024Z,9.48
2023-01-12T15:28:08.471Z,9.49
2023-01-12T15:30:39.789Z,9.57
2023-01-12T15:33:10.816Z,9.60
2023-01-12T15:35:47.025Z,9.66
2023-01-12T15:38:21.867Z,9.55
2023-01-12T15:40:54.265Z,9.54
2023-01-12T15:43:23.049Z,9.54
2023-01-12T15:45:54.999Z,9.54
2023-01-12T15:48:24.508Z,9.60
2023-01-12T15:50:54.400Z,9.68
2023-01-12T15:53:25.457Z,9.54
2023-01-12T15:55:58.538Z,9.60
2023-01-12T15:58:26.766Z,9.61
2023-01-12T16:01:03.191Z,9.60
2023-01-12T16:04:00.587Z,9.57
2023-01-12T16:06:20.789Z,9.57
2023-01-12T16:08:51.043Z,9.50
2023-01-12T16:11:24.253Z,9.60
2023-01-12T16:13:52.633Z,9.54
2023-01-12T16:16:22.481Z,9.59
2023-01-12T16:18:50.773Z,9.56
2023-01-12T16:21:22.837Z,9.58
2023-01-12T16:24:00.811Z,9.58
2023-01-12T16:26:32.631Z,9.60
2023-01-12T16:29:01.289Z,9.56
2023-01-12T16:31:30.531Z,9.57
2023-01-12T16:34:00.344Z,9.67
2023-01-12T16:36:30.589Z,9.65
2023-01-12T16:38:59.588Z,9.61
2023-01-12T16:41:28.851Z,9.67
2023-01-12T16:44:00.433Z,9.60
2023-01-12T16:46:29.952Z,9.54
2023-01-12T16:48:58.992Z,9.53
2023-01-12T16:51:27.654Z,9.55
2023-01-12T16:53:59.452Z,9.48
2023-01-12T16:56:29.800Z,9.50
2023-01-12T16:58:58.954Z,9.59
2023-01-12T17:01:28.983Z,9.51
2023-01-12T17:03:58.107Z,9.48
2023-01-12T17:06:34.941Z,9.46
2023-01-12T17:09:06.280Z,9.50
2023-01-12T17:11:39.631Z,9.50
2023-01-12T17:14:24.538Z,9.44
2023-01-12T17:16:57.229Z,9.40
2023-01-12T17:19:28.068Z,9.59
2023-01-12T17:21:58.472Z,9.50
2023-01-12T17:24:27.402Z,9.52
2023-01-12T17:26:56.897Z,9.52
2023-01-12T17:29:27.185Z,9.58
2023-01-12T17:32:06.003Z,9.53
2023-01-12T17:34:38.100Z,9.56
2023-01-12T17:37:08.820Z,9.58
2023-01-12T17:39:39.592Z,9.55
2023-01-12T17:42:26.509Z,9.61
2023-01-12T17:44:55.375Z,9.59
2023-01-12T17:47:25.733Z,9.53
2023-01-12T17:49:55.520Z,9.46
2023-01-12T17:52:24.195Z,9.54
2023-01-12T17:54:52.485Z,9.53
2023-01-12T17:57:22.952Z,9.55
2023-01-12T17:59:51.951Z,9.53
2023-01-12T18:02:22.597Z,9.44
2023-01-12T18:04:52.199Z,9.48
2023-01-12T18:07:21.279Z,9.45
2023-01-12T18:09:49.460Z,9.36
2023-01-12T18:12:21.348Z,9.43
2023-01-12T18:14:50.440Z,9.39
2023-01-12T18:17:19.247Z,9.38
2023-01-12T18:19:48.662Z,9.26
2023-01-12T18:22:18.575Z,9.18
2023-01-12T18:24:50.108Z,9.18
2023-01-12T18:27:18.512Z,9.17
2023-01-12T18:29:48.850Z,9.16
2023-01-12T18:32:16.998Z,9.07
2023-01-12T18:34:46.160Z,9.11
2023-01-12T18:37:16.098Z,9.07
2023-01-12T18:39:47.133Z,9.08
2023-01-12T18:42:33.524Z,9.02
2023-01-12T18:45:04.719Z,9.15
2023-01-12T18:47:50.301Z,9.04
2023-01-12T18:50:36.189Z,9.15
2023-01-12T18:53:22.264Z,9.17
2023-01-12T18:55:54.873Z,9.06
2023-01-12T18:58:25.950Z,9.09
2023-01-12T19:00:55.087Z,9.07
2023-01-12T19:03:23.466Z,9.10
2023-01-12T19:05:59.995Z,9.02
2023-01-12T19:08:47.610Z,8.98
2023-01-12T19:11:19.060Z,8.98
2023-01-12T19:14:05.275Z,9.00
2023-01-12T19:16:52.439Z,8.98
2023-01-12T19:19:25.761Z,8.93
2023-01-12T19:22:12.313Z,8.90
2023-01-12T19:24:59.483Z,8.92
2023-01-12T19:27:46.917Z,8.82
2023-01-12T19:30:17.123Z,8.79
2023-01-12T19:32:45.430Z,8.88
2023-01-12T19:35:14.143Z,8.85
2023-01-12T19:37:49.785Z,8.84
2023-01-12T19:40:26.173Z,8.80
2023-01-12T19:43:14.521Z,8.79
2023-01-12T19:45:44.920Z,8.87
2023-01-12T19:48:15.689Z,8.89
2023-01-12T19:50:45.031Z,8.96
2023-01-12T19:53:16.648Z,8.93
2023-01-12T19:55:47.946Z,8.96
2023-01-12T19:58:22.122Z,8.95
2023-01-12T20:00:51.489Z,8.88
2023-01-12T20:03:22.062Z,8.90
2023-01-12T20:05:54.142Z,8.92
2023-01-12T20:08:24.904Z,8.98
2023-01-12T20:10:55.816Z,8.94
2023-01-12T20:13:26.404Z,8.96
2023-01-12T20:15:57.825Z,8.95
2023-01-12T20:18:27.012Z,8.94
2023-01-12T20:20:59.193Z,8.99
2023-01-12T20:23:29.048Z,8.93
2023-01-12T20:25:57.628Z,9.08
2023-01-12T20:28:28.535Z,8.96
2023-01-12T20:30:59.275Z,8.93
2023-01-12T20:33:29.457Z,8.90
2023-01-12T20:35:58.313Z,8.90
2023-01-12T20:38:27.109Z,8.97
2023-01-12T20:40:56.843Z,8.93
2023-01-12T20:43:25.067Z,8.92
2023-01-12T20:45:54.636Z,8.94
2023-01-12T20:48:25.908Z,9.00
2023-01-12T20:50:55.541Z,9.12
2023-01-12T20:53:26.900Z,9.08
2023-01-12T20:55:56.273Z,9.18
2023-01-12T20:58:27.319Z,9.10
2023-01-12T21:01:00.108Z,9.08
2023-01-12T21:03:29.069Z,9.14
2023-01-12T21:05:59.873Z,9.19
2023-01-12T21:08:28.075Z,9.10
2023-01-12T21:10:56.880Z,9.12
2023-01-12T21:13:25.450Z,9.15
2023-01-12T21:16:02.623Z,9.13
2023-01-12T21:18:31.870Z,9.14
2023-01-12T21:21:00.434Z,9.14
2023-01-12T21:23:29.868Z,9.16
2023-01-12T21:25:59.270Z,9.13
2023-01-12T21:28:30.226Z,9.12
2023-01-12T21:31:02.974Z,9.07
2023-01-12T21:33:33.324Z,9.07
2023-01-12T21:36:02.042Z,9.06
2023-01-12T21:38:31.470Z,9.01
2023-01-12T21:41:04.303Z,9.10
2023-01-12T21:43:35.948Z,9.09
2023-01-12T21:46:07.995Z,9.10
2023-01-12T21:48:36.530Z,9.08
2023-01-12T21:51:06.713Z,9.09
2023-01-12T21:53:36.430Z,9.08
2023-01-12T21:56:05.803Z,9.04
2023-01-12T21:58:36.341Z,9.05
2023-01-12T22:01:10.932Z,9.14
2023-01-12T22:03:39.859Z,9.03
2023-01-12T22:06:17.069Z,9.05
2023-01-12T22:08:45.909Z,9.09
2023-01-12T22:11:16.552Z,9.10
2023-01-12T22:13:48.524Z,9.02
2023-01-12T22:16:18.678Z,9.09
2023-01-12T22:18:50.782Z,9.05
2023-01-12T22:21:21.829Z,9.12
2023-01-12T22:23:51.296Z,9.06
2023-01-12T22:26:23.210Z,9.01
2023-01-12T22:28:52.814Z,8.98
2023-01-12T22:31:24.767Z,9.06
2023-01-12T22:34:04.132Z,9.10
2023-01-12T22:36:34.851Z,9.02
2023-01-12T22:39:03.947Z,9.00
2023-01-12T22:41:32.361Z,8.98
2023-01-12T22:44:01.075Z,9.10
2023-01-12T22:46:30.815Z,9.11
2023-01-12T22:48:59.610Z,9.03
2023-01-12T22:51:29.459Z,9.07
2023-01-12T22:54:07.010Z,9.08
2023-01-12T22:56:37.367Z,9.00
2023-01-12T22:59:06.682Z,9.16
2023-01-12T23:01:36.519Z,9.12
2023-01-12T23:04:04.489Z,9.07
2023-01-12T23:06:32.873Z,9.14
2023-01-12T23:09:01.937Z,9.15
2023-01-12T23:11:31.225Z,9.21
2023-01-12T23:13:59.778Z,9.25
2023-01-12T23:16:28.672Z,9.22
2023-01-12T23:18:58.356Z,9.20
2023-01-12T23:21:28.806Z,9.21
2023-01-12T23:23:58.760Z,9.20
2023-01-12T23:26:31.097Z,9.19
2023-01-12T23:29:02.728Z,9.22
2023-01-12T23:31:34.083Z,9.25
2023-01-12T23:34:04.765Z,9.25
2023-01-12T23:36:33.405Z,9.29
2023-01-12T23:39:04.927Z,9.24
2023-01-12T23:41:35.901Z,9.15
2023-01-12T23:44:07.597Z,9.14
2023-01-12T23:46:40.270Z,9.09
2023-01-12T23:49:13.324Z,9.14
2023-01-12T23:51:41.696Z,9.21
2023-01-12T23:54:16.555Z,9.24
2023-01-12T23:56:44.924Z,9.27
2023-01-12T23:59:18.095Z,9.30
